Time;durP1;ratioP1;P1;durP2;ratioP2;P2;SDS_P1;SDS_P2;PMS_P1;PMS_P2;Temp;Humidity;BMP_temperature;BMP_pressure;BME280_temperature;BME280_humidity;BME280_pressure;Samples;Min_cycle;Max_cycle;Signal;HPM_P1;HPM_P2
2023/08/10 00:01:59;;;;;;;1.33;0.80;;;;;;;15.31;76.58;102215.66;5016083;28;97457;-27
2023/08/10 00:04:24;;;;;;;0.82;0.60;;;;;;;15.25;76.70;102212.31;5015667;28;97784;-27
2023/08/10 00:06:49;;;;;;;1.35;0.73;;;;;;;15.27;76.82;102213.09;5016612;28;96528;-27
2023/08/10 00:09:15;;;;;;;1.25;0.73;;;;;;;15.32;76.60;102220.13;5014904;28;96780;-26
2023/08/10 00:11:41;;;;;;;2.50;0.88;;;;;;;15.31;76.66;102205.59;5015809;28;97922;-26
2023/08/10 00:14:07;;;;;;;2.28;0.82;;;;;;;15.33;76.89;102219.19;5015958;28;99746;-27
2023/08/10 00:16:33;;;;;;;1.17;0.50;;;;;;;15.35;76.46;102219.94;5016493;28;96582;-27
2023/08/10 00:19:00;;;;;;;1.38;0.70;;;;;;;15.33;76.40;102216.44;5016201;28;96820;-27
2023/08/10 00:21:26;;;;;;;1.00;0.57;;;;;;;15.34;76.62;102210.00;5013731;28;100557;-27
2023/08/10 00:23:51;;;;;;;1.10;0.63;;;;;;;15.38;76.58;102207.00;5015743;28;97677;-27
2023/08/10 00:26:17;;;;;;;1.45;0.63;;;;;;;15.36;76.95;102213.53;5015988;28;96705;-26
2023/08/10 00:28:42;;;;;;;1.55;0.63;;;;;;;15.39;76.28;102221.53;5016269;28;96773;-26
2023/08/10 00:31:07;;;;;;;1.05;0.43;;;;;;;15.39;77.35;102221.53;5015152;28;99615;-27
2023/08/10 00:33:34;;;;;;;1.17;0.70;;;;;;;15.37;76.81;102213.41;5015481;28;97418;-26
2023/08/10 00:36:04;;;;;;;0.88;0.68;;;;;;;15.38;77.12;102212.47;5015837;28;96600;-28
2023/08/10 00:38:29;;;;;;;2.50;0.60;;;;;;;15.34;76.95;102210.00;5015770;28;96885;-26
2023/08/10 00:40:54;;;;;;;1.55;0.90;;;;;;;15.33;76.74;102203.66;5015399;28;97939;-28
2023/08/10 00:43:21;;;;;;;1.55;0.65;;;;;;;15.38;77.17;102214.31;5015496;28;97992;-27
2023/08/10 00:45:47;;;;;;;4.20;1.10;;;;;;;15.41;76.36;102208.66;5012917;28;96791;-27
2023/08/10 00:48:13;;;;;;;1.27;0.57;;;;;;;15.33;77.40;102192.75;5015280;28;96975;-27
2023/08/10 00:50:38;;;;;;;0.55;0.50;;;;;;;15.44;76.79;102206.63;5013695;28;101125;-27
2023/08/10 00:53:04;;;;;;;1.58;0.63;;;;;;;15.41;76.89;102209.53;5014898;28;98764;-27
2023/08/10 00:55:30;;;;;;;2.95;0.63;;;;;;;15.43;77.21;102204.00;5015473;28;96576;-27
2023/08/10 00:57:55;;;;;;;1.42;0.68;;;;;;;15.46;77.20;102210.13;5015956;28;96745;-26
2023/08/10 01:00:21;;;;;;;1.85;0.68;;;;;;;15.50;77.18;102208.13;5014951;28;100094;-27
2023/08/10 01:02:46;;;;;;;2.15;0.70;;;;;;;15.44;77.39;102203.88;5015272;28;97316;-26
2023/08/10 01:05:13;;;;;;;1.30;0.65;;;;;;;15.44;77.59;102200.28;5015264;28;96523;-27
2023/08/10 01:08:02;;;;;;;2.28;0.90;;;;;;;15.44;78.59;102209.34;5013927;28;96969;-26
2023/08/10 01:10:42;;;;;;;1.17;0.55;;;;;;;15.41;78.11;102205.94;5013110;28;100898;-27
2023/08/10 01:13:25;;;;;;;0.88;0.50;;;;;;;15.41;78.47;102211.41;5013388;28;101169;-26
2023/08/10 01:15:57;;;;;;;2.10;0.80;;;;;;;15.37;78.94;102212.53;5013691;28;96711;-27
2023/08/10 01:18:27;;;;;;;0.60;0.35;;;;;;;15.33;78.77;102214.59;5015207;28;96761;-26
2023/08/10 01:20:54;;;;;;;1.08;0.75;;;;;;;15.31;78.94;102202.00;5012964;28;100719;-27
2023/08/10 01:23:30;;;;;;;2.17;0.63;;;;;;;15.22;79.22;102195.25;5013246;28;100884;-26
2023/08/10 01:25:57;;;;;;;2.33;0.60;;;;;;;15.24;79.13;102210.56;5013664;28;96573;-26
2023/08/10 01:28:24;;;;;;;1.33;0.70;;;;;;;15.24;79.22;102213.28;5013912;28;96845;-28
2023/08/10 01:30:50;;;;;;;1.38;0.60;;;;;;;15.22;79.64;102206.16;5013207;28;101466;-28
2023/08/10 01:33:15;;;;;;;2.55;0.45;;;;;;;15.19;80.15;102212.69;5014374;28;99186;-27
2023/08/10 01:35:40;;;;;;;1.65;0.70;;;;;;;15.15;79.86;102194.72;5014501;28;96540;-26
2023/08/10 01:38:06;;;;;;;0.95;0.70;;;;;;;15.13;80.03;102195.78;5014759;28;96902;-27
2023/08/10 01:40:32;;;;;;;1.13;0.68;;;;;;;15.13;80.28;102202.09;5014568;28;98073;-26
2023/08/10 01:42:58;;;;;;;0.65;0.43;;;;;;;15.13;80.53;102207.56;5012953;28;101266;-26
2023/08/10 01:45:23;;;;;;;1.13;0.60;;;;;;;15.06;80.25;102200.72;5014505;28;96795;-27
2023/08/10 01:47:52;;;;;;;0.93;0.60;;;;;;;15.06;80.19;102206.16;5014699;28;96769;-27
2023/08/10 01:50:20;;;;;;;0.82;0.70;;;;;;;15.03;80.71;102203.63;5014287;28;97369;-27
2023/08/10 01:52:51;;;;;;;1.05;0.60;;;;;;;15.04;80.96;102208.09;5012941;28;100824;-27
2023/08/10 01:55:18;;;;;;;0.52;0.45;;;;;;;15.02;80.60;102204.63;5013239;28;96694;-27
2023/08/10 01:57:44;;;;;;;2.55;0.75;;;;;;;14.97;80.95;102201.25;5013273;28;96947;-27
2023/08/10 02:00:12;;;;;;;0.40;0.40;;;;;;;15.02;80.87;102210.94;5012310;28;101227;-26
2023/08/10 02:02:38;;;;;;;0.70;0.40;;;;;;;14.98;80.55;102213.94;5012884;28;100988;-27
2023/08/10 02:05:04;;;;;;;1.13;0.68;;;;;;;14.96;80.27;102204.97;5012878;28;96852;-27
2023/08/10 02:07:29;;;;;;;0.65;0.60;;;;;;;14.97;80.58;102213.06;5014280;28;96838;-28
2023/08/10 02:09:55;;;;;;;1.77;1.08;;;;;;;14.94;81.30;102212.34;5014214;28;97965;-27
2023/08/10 02:12:20;;;;;;;0.77;0.63;;;;;;;14.92;81.34;102207.00;5014045;28;97432;-27
2023/08/10 02:14:45;;;;;;;0.95;0.63;;;;;;;14.94;81.57;102215.06;5014208;28;96505;-27
2023/08/10 02:17:11;;;;;;;0.88;0.80;;;;;;;14.92;81.77;102217.00;5014933;28;96839;-26
2023/08/10 02:19:36;;;;;;;0.93;0.60;;;;;;;14.90;81.52;102205.31;5013938;28;99368;-27
2023/08/10 02:22:02;;;;;;;1.42;0.80;;;;;;;14.85;81.84;102211.94;5013796;28;97301;-27
2023/08/10 02:24:27;;;;;;;1.83;0.98;;;;;;;14.83;81.70;102202.06;5013914;28;96774;-27
2023/08/10 02:26:52;;;;;;;1.73;1.02;;;;;;;14.88;81.64;102213.59;5014430;28;96800;-27
2023/08/10 02:29:18;;;;;;;0.90;0.80;;;;;;;14.83;81.71;102211.13;5014101;28;97309;-26
2023/08/10 02:31:44;;;;;;;0.77;0.65;;;;;;;14.85;81.25;102211.94;5013690;28;99107;-27
2023/08/10 02:34:09;;;;;;;1.90;1.00;;;;;;;14.88;81.71;102218.19;5016278;28;96806;-27
2023/08/10 02:36:34;;;;;;;5.78;0.80;;;;;;;14.82;81.81;102203.91;5017340;28;96871;-27
2023/08/10 02:39:01;;;;;;;3.17;0.95;;;;;;;14.88;81.61;102213.59;5017333;28;97585;-27
2023/08/10 02:41:26;;;;;;;1.02;0.77;;;;;;;14.88;81.74;102210.00;5017779;28;97804;-27
2023/08/10 02:43:52;;;;;;;0.90;0.60;;;;;;;14.84;82.07;102218.34;5017465;28;96692;-27
2023/08/10 02:46:17;;;;;;;1.02;0.70;;;;;;;14.83;82.16;102216.59;5017262;28;96885;-26
2023/08/10 02:48:43;;;;;;;0.85;0.68;;;;;;;14.85;82.13;102231.03;5015081;28;101457;-27
2023/08/10 02:51:08;;;;;;;0.90;0.73;;;;;;;14.85;82.39;102225.56;5016876;28;99272;-26
2023/08/10 02:53:34;;;;;;;2.25;0.68;;;;;;;14.84;82.37;102220.19;5017353;28;96671;-27
2023/08/10 02:56:00;;;;;;;1.17;0.65;;;;;;;14.83;81.79;102227.50;5015962;28;96913;-27
2023/08/10 02:58:25;;;;;;;1.90;0.82;;;;;;;14.85;82.28;102233.75;5016946;28;98068;-26
2023/08/10 03:00:50;;;;;;;0.90;0.65;;;;;;;14.85;82.13;102236.47;5016972;28;101021;-26
2023/08/10 03:03:17;;;;;;;2.00;0.82;;;;;;;14.85;82.02;102236.47;5017114;28;96696;-26
2023/08/10 03:05:42;;;;;;;1.35;0.82;;;;;;;14.81;82.71;102226.69;5017384;28;97684;-27
2023/08/10 03:08:07;;;;;;;1.35;0.77;;;;;;;14.83;82.23;102227.50;5016911;28;97958;-27
2023/08/10 03:10:33;;;;;;;1.00;0.90;;;;;;;14.83;82.14;102229.34;5016972;28;97652;-26
2023/08/10 03:12:58;;;;;;;1.33;0.82;;;;;;;14.83;82.59;102232.09;5016566;28;96795;-27
2023/08/10 03:15:24;;;;;;;0.80;0.65;;;;;;;14.77;82.58;102216.06;5016991;28;96614;-26
2023/08/10 03:17:49;;;;;;;1.48;0.80;;;;;;;14.78;82.90;102223.28;5016551;28;99229;-27
2023/08/10 03:20:16;;;;;;;1.48;0.80;;;;;;;14.72;83.44;102219.03;5016149;28;99113;-27
2023/08/10 03:22:45;;;;;;;0.93;0.60;;;;;;;14.73;83.04;102219.91;5015598;28;96466;-27
2023/08/10 03:25:11;;;;;;;1.30;0.80;;;;;;;14.67;83.28;102214.84;5016693;28;96876;-27
2023/08/10 03:27:36;;;;;;;2.05;0.65;;;;;;;14.69;83.40;102210.16;5016656;28;97922;-26
2023/08/10 03:30:03;;;;;;;0.90;0.63;;;;;;;14.68;83.59;102225.63;5017001;28;97845;-26
2023/08/10 03:32:29;;;;;;;1.92;0.90;;;;;;;14.66;83.81;102213.97;5016570;28;96806;-27
2023/08/10 03:34:55;;;;;;;0.68;0.50;;;;;;;14.63;83.59;102215.00;5015249;28;96922;-27
2023/08/10 03:37:20;;;;;;;1.80;0.90;;;;;;;14.67;83.60;102221.16;5016254;28;97357;-27
2023/08/10 03:39:45;;;;;;;1.83;0.75;;;;;;;14.64;84.11;102221.34;5016387;28;98926;-27
2023/08/10 03:42:10;;;;;;;2.25;0.70;;;;;;;14.65;83.81;102228.53;5016829;28;96585;-26
2023/08/10 03:44:36;;;;;;;1.83;0.60;;;;;;;14.59;83.94;102212.53;5015739;28;96862;-26
2023/08/10 03:47:01;;;;;;;1.23;0.77;;;;;;;14.57;84.13;102209.88;5016522;28;97392;-27
2023/08/10 03:49:27;;;;;;;1.40;0.77;;;;;;;14.57;84.28;102218.06;5016022;28;97824;-27
2023/08/10 03:51:52;;;;;;;1.83;0.95;;;;;;;14.59;84.63;102226.19;5016579;28;96933;-27
2023/08/10 03:54:18;;;;;;;0.70;0.68;;;;;;;14.54;84.47;102225.53;5016882;28;96733;-27
2023/08/10 03:56:43;;;;;;;1.70;0.98;;;;;;;14.57;84.18;102228.97;5016312;28;97981;-26
2023/08/10 03:59:10;;;;;;;1.35;0.80;;;;;;;14.56;84.65;102237.25;5014553;28;100819;-27
2023/08/10 04:01:35;;;;;;;2.33;0.95;;;;;;;14.55;85.04;102232.75;5014301;28;96708;-26
2023/08/10 04:04:01;;;;;;;1.42;0.90;;;;;;;14.51;84.97;102232.00;5016037;28;96820;-27
2023/08/10 04:06:26;;;;;;;1.90;0.95;;;;;;;14.52;84.54;102228.34;5015645;28;99276;-27
2023/08/10 04:08:53;;;;;;;2.90;0.80;;;;;;;14.49;84.93;102231.25;5014344;28;101303;-27
2023/08/10 04:11:19;;;;;;;1.40;0.95;;;;;;;14.50;84.74;102224.81;5014767;28;96685;-27
2023/08/10 04:13:46;;;;;;;1.05;0.80;;;;;;;14.54;85.12;102236.44;5014596;28;96872;-26
2023/08/10 04:16:11;;;;;;;1.23;0.77;;;;;;;14.53;84.95;102235.53;5014371;28;101347;-27
2023/08/10 04:18:37;;;;;;;1.15;0.77;;;;;;;14.53;85.01;102240.97;5015727;28;99070;-27
2023/08/10 04:21:02;;;;;;;1.23;0.75;;;;;;;14.53;84.83;102237.38;5015792;28;97123;-26
2023/08/10 04:23:28;;;;;;;1.02;0.80;;;;;;;14.55;84.97;102236.38;5016187;28;96840;-27
2023/08/10 04:25:53;;;;;;;1.65;0.90;;;;;;;14.56;84.60;102239.97;5015307;28;97966;-27
2023/08/10 04:28:18;;;;;;;1.27;0.80;;;;;;;14.57;84.93;102236.28;5015478;28;99103;-27
2023/08/10 04:30:44;;;;;;;1.98;1.33;;;;;;;14.61;84.55;102240.56;5016352;28;96584;-26
2023/08/10 04:33:09;;;;;;;2.50;1.35;;;;;;;14.63;84.76;102235.91;5015650;28;96820;-27
2023/08/10 04:35:35;;;;;;;2.60;1.63;;;;;;;14.64;84.88;102237.72;5015362;28;99226;-27
2023/08/10 04:38:00;;;;;;;6.28;1.17;;;;;;;14.67;84.55;102240.25;5015651;28;97200;-27
2023/08/10 04:40:25;;;;;;;2.15;1.17;;;;;;;14.73;84.60;102231.72;5015769;28;96532;-27
2023/08/10 04:42:51;;;;;;;1.83;1.10;;;;;;;14.72;85.24;102238.13;5015864;28;96859;-26
2023/08/10 04:45:17;;;;;;;1.58;1.25;;;;;;;14.76;84.90;102234.28;5014882;28;97980;-27
2023/08/10 04:47:42;;;;;;;4.93;1.33;;;;;;;14.76;84.71;102227.94;5015468;28;97410;-27
2023/08/10 04:50:09;;;;;;;3.33;1.83;;;;;;;14.82;84.43;102238.50;5015070;28;96609;-27
2023/08/10 04:52:34;;;;;;;2.95;2.00;;;;;;;14.84;85.61;102234.69;5013910;28;96891;-26
2023/08/10 04:55:00;;;;;;;1.95;1.40;;;;;;;14.85;85.04;102224.69;5014171;28;99451;-26
2023/08/10 04:57:26;;;;;;;3.80;1.73;;;;;;;14.91;84.70;102240.69;5015220;28;97324;-26
2023/08/10 04:59:52;;;;;;;2.00;1.40;;;;;;;14.91;84.61;102232.50;5013895;28;96536;-27
2023/08/10 05:02:18;;;;;;;5.05;1.52;;;;;;;14.93;84.62;102221.53;5015012;28;96893;-27
2023/08/10 05:04:43;;;;;;;3.45;1.90;;;;;;;15.01;85.25;102235.59;5014906;28;97892;-27
2023/08/10 05:07:08;;;;;;;2.30;1.52;;;;;;;14.98;84.38;102223.00;5015421;28;97309;-26
2023/08/10 05:09:34;;;;;;;3.10;1.95;;;;;;;15.04;85.41;102235.41;5015423;28;96496;-26
2023/08/10 05:11:59;;;;;;;3.03;1.85;;;;;;;15.07;84.85;102232.50;5015263;28;96791;-27
2023/08/10 05:14:24;;;;;;;2.78;1.98;;;;;;;15.06;84.86;102225.28;5014438;28;97962;-26
2023/08/10 05:16:50;;;;;;;2.95;1.63;;;;;;;15.11;84.69;102231.38;5014735;28;98852;-26
2023/08/10 05:19:15;;;;;;;3.40;1.75;;;;;;;15.13;84.60;102234.00;5015152;28;96588;-26
2023/08/10 05:21:41;;;;;;;3.60;2.30;;;;;;;15.08;85.15;102218.75;5014946;28;96865;-26
2023/08/10 05:24:06;;;;;;;4.00;2.35;;;;;;;15.15;84.99;102227.47;5014730;28;97911;-27
2023/08/10 05:26:32;;;;;;;10.55;2.05;;;;;;;15.15;84.47;102211.09;5014903;28;97951;-27
2023/08/10 05:28:58;;;;;;;3.53;1.67;;;;;;;15.22;85.55;102225.25;5013489;28;96634;-27
2023/08/10 05:31:23;;;;;;;3.13;1.80;;;;;;;15.20;84.83;102219.88;5015126;28;96770;-27
2023/08/10 05:33:49;;;;;;;3.00;2.05;;;;;;;15.25;84.62;102231.44;5014732;28;97782;-27
2023/08/10 05:36:14;;;;;;;2.90;1.80;;;;;;;15.26;85.16;102230.44;5014333;28;99450;-27
2023/08/10 05:38:40;;;;;;;5.25;2.20;;;;;;;15.27;84.35;102224.00;5014192;28;96803;-26
2023/08/10 05:41:05;;;;;;;6.53;2.20;;;;;;;15.34;83.99;102227.25;5013743;28;96822;-27
2023/08/10 05:43:31;;;;;;;8.00;2.83;;;;;;;15.33;83.54;102221.91;5013471;28;99417;-27
2023/08/10 05:45:56;;;;;;;3.88;2.30;;;;;;;15.35;84.44;102225.41;5013211;28;98842;-26
2023/08/10 05:48:22;;;;;;;4.13;2.08;;;;;;;15.38;83.33;102233.44;5014704;28;96592;-27
2023/08/10 05:50:49;;;;;;;6.45;2.25;;;;;;;15.41;83.33;102225.06;5014571;28;96817;-27
2023/08/10 05:53:14;;;;;;;4.28;1.63;;;;;;;15.45;83.33;102223.91;5012734;28;101320;-28
2023/08/10 05:55:40;;;;;;;5.40;1.38;;;;;;;15.53;82.40;102224.31;5014929;28;97283;-27
2023/08/10 05:58:06;;;;;;;2.33;1.48;;;;;;;15.53;82.26;102223.44;5014618;28;96602;-26
2023/08/10 06:00:32;;;;;;;1.83;1.17;;;;;;;15.61;82.27;102222.00;5014726;28;96897;-27
2023/08/10 06:02:57;;;;;;;2.72;1.60;;;;;;;15.63;82.46;102222.75;5012236;28;100593;-27
2023/08/10 06:05:23;;;;;;;4.13;1.58;;;;;;;15.70;82.39;102226.91;5011923;28;97762;-27
2023/08/10 06:07:48;;;;;;;2.58;1.33;;;;;;;15.77;82.48;102218.34;5015157;28;97140;-30
2023/08/10 06:10:16;;;;;;;5.15;2.28;;;;;;;15.78;81.97;102214.63;5015787;28;96852;-27
2023/08/10 06:12:41;;;;;;;3.30;1.95;;;;;;;15.81;82.24;102211.75;5014894;28;99430;-27
2023/08/10 06:15:08;;;;;;;3.17;1.80;;;;;;;15.84;82.11;102212.41;5015143;28;99290;-29
2023/08/10 06:17:34;;;;;;;3.90;2.30;;;;;;;15.94;81.62;102223.66;5015429;28;96811;-27
2023/08/10 06:19:59;;;;;;;3.78;2.00;;;;;;;16.01;81.28;102227.75;5017484;28;97031;-27
2023/08/10 06:22:24;;;;;;;4.60;2.17;;;;;;;16.03;81.03;102217.59;5017417;28;99356;-27
2023/08/10 06:24:50;;;;;;;3.38;1.95;;;;;;;16.07;81.01;102221.03;5017559;28;97032;-26
2023/08/10 06:27:15;;;;;;;4.50;2.60;;;;;;;16.16;81.48;102230.50;5017445;28;96560;-27
2023/08/10 06:29:41;;;;;;;4.53;2.03;;;;;;;16.19;80.99;102225.72;5017782;28;96750;-27
2023/08/10 06:32:07;;;;;;;3.85;2.17;;;;;;;16.27;80.93;102233.44;5017249;28;97809;-27
2023/08/10 06:34:34;;;;;;;6.30;2.00;;;;;;;16.30;81.08;102235.97;5017316;28;97848;-27
2023/08/10 06:36:59;;;;;;;4.03;2.05;;;;;;;16.29;81.12;102232.38;5015774;28;96558;-27
2023/08/10 06:39:27;;;;;;;4.32;1.92;;;;;;;16.36;80.26;102235.59;5017404;28;96788;-27
2023/08/10 06:41:53;;;;;;;4.65;2.13;;;;;;;16.37;80.37;102226.41;5015797;28;100975;-27
2023/08/10 06:44:19;;;;;;;4.57;2.15;;;;;;;16.46;80.21;102236.75;5016967;28;99159;-28
2023/08/10 06:46:44;;;;;;;3.85;1.90;;;;;;;16.51;79.56;102231.00;5016102;28;96628;-26
2023/08/10 06:49:10;;;;;;;3.63;1.98;;;;;;;16.51;78.94;102231.00;5017863;28;96783;-27
2023/08/10 06:51:35;;;;;;;2.83;1.75;;;;;;;16.55;78.78;102222.50;5016727;28;97857;-27
2023/08/10 06:54:00;;;;;;;2.20;1.50;;;;;;;16.60;79.13;102221.31;5016875;28;98837;-27
2023/08/10 06:56:26;;;;;;;3.05;2.00;;;;;;;16.58;78.26;102215.06;5017354;28;96474;-27
2023/08/10 06:58:51;;;;;;;3.17;1.70;;;;;;;16.61;78.01;102221.19;5016968;28;96849;-27
2023/08/10 07:01:17;;;;;;;3.30;1.58;;;;;;;16.69;78.17;102221.59;5016976;28;97704;-27
2023/08/10 07:03:42;;;;;;;3.22;1.40;;;;;;;16.70;76.98;102223.34;5016979;28;97338;-27
2023/08/10 07:06:08;;;;;;;3.50;1.58;;;;;;;16.71;76.16;102226.97;5017281;28;96642;-27
2023/08/10 07:08:33;;;;;;;3.67;1.42;;;;;;;16.72;76.52;102202.22;5017735;28;96781;-27
2023/08/10 07:11:01;;;;;;;1.60;0.98;;;;;;;16.76;76.06;102217.47;5016846;28;97922;-27
2023/08/10 07:13:27;;;;;;;3.85;1.38;;;;;;;16.76;76.03;102219.34;5015174;28;99059;-26
2023/08/10 07:15:52;;;;;;;2.40;1.27;;;;;;;16.85;76.03;102220.59;5016636;28;96496;-27
2023/08/10 07:18:17;;;;;;;2.63;1.23;;;;;;;16.87;76.37;102216.78;5016123;28;96923;-27
2023/08/10 07:20:43;;;;;;;2.33;1.27;;;;;;;16.95;76.64;102219.91;5016981;28;97942;-27
2023/08/10 07:23:09;;;;;;;2.35;1.20;;;;;;;16.95;76.11;102210.81;5016587;28;99245;-27
2023/08/10 07:25:36;;;;;;;1.88;1.15;;;;;;;17.09;76.35;102226.31;5017051;28;96621;-27
2023/08/10 07:28:01;;;;;;;2.30;1.25;;;;;;;17.11;76.38;102219.78;5016841;28;96795;-27
2023/08/10 07:30:28;;;;;;;2.03;0.90;;;;;;;17.14;75.67;102224.16;5016285;28;99480;-27
2023/08/10 07:32:54;;;;;;;2.17;1.30;;;;;;;17.21;76.06;102225.50;5015189;28;101229;-26
2023/08/10 07:35:19;;;;;;;1.38;0.73;;;;;;;17.17;75.81;102216.59;5016628;28;96508;-27
2023/08/10 07:37:46;;;;;;;1.38;1.00;;;;;;;17.21;75.26;102225.50;5016774;28;96779;-26
2023/08/10 07:40:11;;;;;;;1.52;1.10;;;;;;;17.23;75.00;102231.72;5014326;28;100930;-26
2023/08/10 07:42:36;;;;;;;1.73;1.20;;;;;;;17.22;74.50;102224.50;5016431;28;97664;-27
2023/08/10 07:45:04;;;;;;;2.40;1.23;;;;;;;17.27;74.92;102233.28;5016195;28;96484;-27
2023/08/10 07:47:30;;;;;;;2.30;1.30;;;;;;;17.31;75.08;102229.38;5015078;28;96883;-27
2023/08/10 07:49:55;;;;;;;2.08;1.08;;;;;;;17.35;74.68;102238.25;5016263;28;97885;-27
2023/08/10 07:52:20;;;;;;;2.10;1.17;;;;;;;17.30;74.16;102227.59;5016127;28;97371;-27
2023/08/10 07:54:46;;;;;;;1.27;0.77;;;;;;;17.43;73.87;102238.63;5016946;28;96482;-28
2023/08/10 07:57:11;;;;;;;2.92;1.30;;;;;;;17.44;74.26;102236.75;5016638;28;96845;-27
2023/08/10 07:59:37;;;;;;;2.72;1.58;;;;;;;17.48;73.68;102230.06;5015992;28;99278;-26
2023/08/10 08:02:02;;;;;;;3.22;1.63;;;;;;;17.54;73.44;102238.75;5016243;28;97084;-26
2023/08/10 08:04:28;;;;;;;3.33;1.50;;;;;;;17.53;73.68;102230.63;5015424;28;96498;-27
2023/08/10 08:06:53;;;;;;;4.40;1.75;;;;;;;17.54;73.46;102238.75;5016338;28;96799;-27
2023/08/10 08:09:18;;;;;;;3.08;1.63;;;;;;;17.59;73.22;102247.53;5015660;28;99827;-27
2023/08/10 08:11:44;;;;;;;3.25;1.58;;;;;;;17.58;73.38;102232.06;5015912;28;97534;-27
2023/08/10 08:14:09;;;;;;;3.53;1.80;;;;;;;17.68;73.70;102242.38;5015682;28;96780;-27
2023/08/10 08:16:34;;;;;;;1.92;1.35;;;;;;;17.69;73.25;102247.78;5016486;28;96858;-27
2023/08/10 08:19:00;;;;;;;3.40;1.58;;;;;;;17.77;73.11;102249.97;5015797;28;97933;-27
2023/08/10 08:21:27;;;;;;;2.70;1.77;;;;;;;17.76;72.69;102243.63;5015871;28;99100;-29
2023/08/10 08:23:54;;;;;;;4.95;1.90;;;;;;;17.85;73.22;102252.22;5014563;28;96585;-27
2023/08/10 08:26:21;;;;;;;4.55;2.30;;;;;;;17.82;72.41;102243.22;5015911;28;96813;-27
2023/08/10 08:28:47;;;;;;;3.25;1.98;;;;;;;17.89;72.09;102237.31;5013592;28;100842;-27
2023/08/10 08:31:13;;;;;;;2.35;1.40;;;;;;;17.86;71.15;102232.06;5013018;28;101100;-26
2023/08/10 08:33:39;;;;;;;4.28;2.00;;;;;;;17.94;72.06;102246.97;5014283;28;96721;-27
2023/08/10 08:36:05;;;;;;;3.28;1.55;;;;;;;17.98;71.41;102244.91;5014355;28;96874;-28
2023/08/10 08:38:32;;;;;;;3.35;1.95;;;;;;;17.95;70.88;102232.28;5013911;28;101380;-27
2023/08/10 08:40:58;;;;;;;3.63;1.80;;;;;;;17.99;71.69;102243.91;5014118;28;100608;-29
2023/08/10 08:43:24;;;;;;;5.90;1.77;;;;;;;18.01;71.59;102239.19;5015865;28;96598;-27
2023/08/10 08:45:49;;;;;;;3.97;1.73;;;;;;;18.03;70.72;102242.69;5015855;28;96897;-26
2023/08/10 08:48:16;;;;;;;4.63;1.70;;;;;;;18.09;71.20;102246.84;5015162;28;99267;-27
2023/08/10 08:50:44;;;;;;;4.05;1.80;;;;;;;18.14;71.27;102245.56;5013830;28;100729;-27
2023/08/10 08:53:11;;;;;;;4.10;1.70;;;;;;;18.16;70.78;102243.59;5014693;28;97744;-27
2023/08/10 08:55:38;;;;;;;4.28;1.85;;;;;;;18.16;70.68;102242.69;5013972;28;96923;-26
2023/08/10 08:58:04;;;;;;;4.25;1.77;;;;;;;18.17;69.77;102245.34;5015144;28;97918;-27
2023/08/10 09:00:31;;;;;;;6.32;2.05;;;;;;;18.24;70.54;102246.66;5013625;28;100759;-28
2023/08/10 09:02:56;;;;;;;3.90;2.20;;;;;;;18.32;71.41;102246.09;5015569;28;96595;-27
2023/08/10 09:05:22;;;;;;;2.40;1.60;;;;;;;18.34;70.55;102232.28;5015207;28;96781;-26
2023/08/10 09:07:47;;;;;;;3.63;1.77;;;;;;;18.40;70.00;102249.19;5015009;28;98171;-27
2023/08/10 09:10:12;;;;;;;2.80;1.77;;;;;;;18.42;69.24;102235.31;5014862;28;99169;-27
2023/08/10 09:12:39;;;;;;;3.55;1.70;;;;;;;18.37;68.12;102238.41;5014921;28;96563;-26
2023/08/10 09:15:05;;;;;;;4.07;1.80;;;;;;;18.38;68.93;102237.44;5013838;28;96936;-27
2023/08/10 09:17:32;;;;;;;4.15;1.70;;;;;;;18.40;69.03;102234.56;5014547;28;97923;-27
2023/08/10 09:19:58;;;;;;;2.90;1.73;;;;;;;18.45;69.32;102227.78;5013428;28;101128;-27
2023/08/10 09:22:33;;;;;;;3.60;1.95;;;;;;;18.54;69.58;102228.06;5015190;28;96594;-27
2023/08/10 09:25:00;;;;;;;4.45;1.63;;;;;;;18.60;69.54;102227.63;5013606;28;96865;-27
2023/08/10 09:27:29;;;;;;;4.85;1.73;;;;;;;18.67;69.59;102232.56;5013351;28;101461;-27
2023/08/10 09:30:00;;;;;;;4.40;1.92;;;;;;;18.73;68.80;102233.09;5013220;28;100997;-27
2023/08/10 09:32:26;;;;;;;4.15;2.20;;;;;;;18.76;69.36;102238.34;5013578;28;96532;-26
2023/08/10 09:34:52;;;;;;;3.42;1.90;;;;;;;18.78;69.34;102237.28;5015269;28;96841;-26
2023/08/10 09:37:18;;;;;;;5.93;2.08;;;;;;;18.79;68.85;102233.53;5012572;28;101005;-27
2023/08/10 09:39:43;;;;;;;3.50;1.77;;;;;;;18.85;69.37;102241.34;5014736;28;97817;-27
2023/08/10 09:42:09;;;;;;;5.07;1.90;;;;;;;18.88;69.29;102221.00;5013857;28;96509;-26
2023/08/10 09:44:48;;;;;;;2.53;1.75;;;;;;;18.99;68.82;102236.66;5014221;28;96898;-27
2023/08/10 09:47:15;;;;;;;4.45;1.90;;;;;;;19.03;69.13;102228.09;5012978;28;100825;-27
2023/08/10 09:49:57;;;;;;;1.98;1.42;;;;;;;19.10;68.91;102234.88;5014387;28;97440;-26
2023/08/10 09:52:25;;;;;;;4.07;2.05;;;;;;;19.18;68.58;102237.03;5013272;28;96565;-28
2023/08/10 09:54:52;;;;;;;3.53;2.03;;;;;;;19.29;68.57;102236.22;5013253;28;96846;-28
2023/08/10 09:57:18;;;;;;;3.90;2.05;;;;;;;19.35;68.60;102241.22;5012926;28;98940;-26
2023/08/10 09:59:45;;;;;;;4.75;1.92;;;;;;;19.38;67.67;102241.00;5014807;28;98044;-26
2023/08/10 10:02:11;;;;;;;5.32;1.85;;;;;;;19.44;68.21;102237.78;5013215;28;96633;-29
2023/08/10 10:04:40;;;;;;;3.35;1.88;;;;;;;19.58;68.07;102247.72;5013206;28;96886;-27
2023/08/10 10:07:08;;;;;;;5.38;2.42;;;;;;;19.62;67.77;102238.25;5012252;28;100809;-27
2023/08/10 10:09:37;;;;;;;3.55;2.00;;;;;;;19.69;67.75;102234.03;5012780;28;100835;-27
2023/08/10 10:12:06;;;;;;;3.97;2.40;;;;;;;19.81;67.04;102231.34;5012871;28;96632;-26
2023/08/10 10:14:33;;;;;;;4.88;2.45;;;;;;;19.89;66.83;102228.84;5013005;28;96877;-27
2023/08/10 10:16:59;;;;;;;4.90;2.42;;;;;;;19.98;65.83;102233.63;5012527;28;100844;-26
2023/08/10 10:19:25;;;;;;;4.93;2.47;;;;;;;20.13;66.78;102229.63;5014125;28;97815;-27
2023/08/10 10:21:51;;;;;;;3.38;1.83;;;;;;;20.13;65.34;102221.38;5012976;28;96700;-27
2023/08/10 10:24:20;;;;;;;5.97;2.08;;;;;;;20.35;65.76;102226.06;5014909;28;96762;-27
2023/08/10 10:26:59;;;;;;;2.83;1.70;;;;;;;20.53;65.61;102229.16;5013859;28;99391;-27
2023/08/10 10:29:37;;;;;;;2.15;1.35;;;;;;;20.73;65.33;102226.69;5012535;28;100518;-26
2023/08/10 10:32:12;;;;;;;2.78;1.60;;;;;;;20.88;64.73;102217.16;5012339;28;96620;-26
2023/08/10 10:34:38;;;;;;;3.53;2.03;;;;;;;20.96;64.68;102214.63;5014036;28;96662;-26
2023/08/10 10:37:13;;;;;;;2.28;1.55;;;;;;;21.06;62.75;102224.88;5012224;28;99000;-27
2023/08/10 10:39:40;;;;;;;2.45;1.40;;;;;;;21.13;61.44;102226.97;5012336;28;100886;-26
2023/08/10 10:42:07;;;;;;;3.78;1.42;;;;;;;21.14;62.20;102222.31;5012540;28;96623;-27
2023/08/10 10:45:14;;;;;;;4.38;2.30;;;;;;;21.27;62.01;102223.06;5011942;28;96951;-27
2023/08/10 10:47:41;;;;;;;3.05;1.63;;;;;;;21.40;60.37;102223.78;5013913;28;98179;-27
2023/08/10 10:50:33;;;;;;;4.60;2.03;;;;;;;21.46;61.18;102227.91;5012443;28;101142;-26
2023/08/10 10:53:01;;;;;;;5.32;1.95;;;;;;;21.42;61.08;102218.13;5010461;28;96886;-27
2023/08/10 10:55:35;;;;;;;3.33;1.90;;;;;;;21.55;61.76;102224.34;5015841;28;96858;-26
2023/08/10 10:58:02;;;;;;;3.50;1.92;;;;;;;21.68;59.44;102215.00;5016796;28;98007;-27
2023/08/10 11:00:28;;;;;;;3.60;1.90;;;;;;;21.90;60.51;102219.50;5016773;28;99214;-32
2023/08/10 11:02:54;;;;;;;4.70;2.20;;;;;;;22.05;58.05;102215.41;5017032;28;96763;-28
2023/08/10 11:05:20;;;;;;;4.53;1.98;;;;;;;22.11;58.65;102205.69;5017217;28;96852;-27
2023/08/10 11:07:50;;;;;;;3.38;1.92;;;;;;;22.34;58.37;102214.72;5016983;28;97992;-27
2023/08/10 11:10:17;;;;;;;2.78;1.75;;;;;;;22.58;57.78;102208.88;5016674;28;97310;-26
2023/08/10 11:12:44;;;;;;;3.88;2.53;;;;;;;22.86;58.29;102209.97;5017126;28;97133;-26
2023/08/10 11:15:12;;;;;;;3.15;1.85;;;;;;;23.13;57.85;102203.78;5015842;28;97018;-26
2023/08/10 11:17:39;;;;;;;3.70;2.20;;;;;;;23.34;56.80;102202.81;5015246;28;101048;-27
2023/08/10 11:20:07;;;;;;;4.00;2.05;;;;;;;23.58;57.28;102211.53;5015332;28;100905;-27
2023/08/10 11:22:37;;;;;;;3.33;2.28;;;;;;;23.70;54.48;102206.72;5016416;28;96569;-26